createdAt,value
2023-02-06T00:01:19.018Z,103141.72
2023-02-06T00:03:46.403Z,103144.19
2023-02-06T00:06:14.016Z,103149.25
2023-02-06T00:08:41.711Z,103142.28
2023-02-06T00:11:12.003Z,103133.59
2023-02-06T00:13:41.143Z,103133.59
2023-02-06T00:16:16.917Z,103132.63
2023-02-06T00:18:45.074Z,103127.31
2023-02-06T00:21:13.476Z,103128.75
2023-02-06T00:23:40.820Z,103123.81
2023-02-06T00:26:08.930Z,103129.66
2023-02-06T00:28:36.325Z,103126.94
2023-02-06T00:31:07.335Z,103114.09
2023-02-06T00:33:35.766Z,103115.53
2023-02-06T00:36:03.901Z,103106.72
2023-02-06T00:38:31.659Z,103098.34
2023-02-06T00:40:59.466Z,103109.09
2023-02-06T00:43:26.633Z,103099.47
2023-02-06T00:45:55.345Z,103101.28
2023-02-06T00:48:25.066Z,103096.41
2023-02-06T00:50:53.687Z,103085.44
2023-02-06T00:53:21.613Z,103088.81
2023-02-06T00:55:49.594Z,103081.09
2023-02-06T00:58:16.786Z,103078.41
2023-02-06T01:00:43.999Z,103074.91
2023-02-06T01:03:11.486Z,103073.16
2023-02-06T01:05:40.407Z,103070.66
2023-02-06T01:08:07.623Z,103079.63
2023-02-06T01:10:35.417Z,103075.44
2023-02-06T01:13:02.649Z,103068.13
2023-02-06T01:15:29.875Z,103066.63
2023-02-06T01:17:57.180Z,103059.16
2023-02-06T01:20:24.586Z,103054.63
2023-02-06T01:22:53.845Z,103053.31
2023-02-06T01:25:21.213Z,103047.28
2023-02-06T01:27:48.608Z,103053.84
2023-02-06T01:30:15.582Z,103060.63
2023-02-06T01:32:43.336Z,103053.53
2023-02-06T01:35:11.747Z,103067.13
2023-02-06T01:37:40.206Z,103060.50
2023-02-06T01:40:14.731Z,103051.13
2023-02-06T01:42:42.309Z,103052.53
2023-02-06T01:45:35.513Z,103051.50
2023-02-06T01:48:07.763Z,103050.34
2023-02-06T01:50:37.541Z,103047.22
2023-02-06T01:53:07.317Z,103035.19
2023-02-06T01:55:43.769Z,103027.50
2023-02-06T01:58:14.816Z,103029.16
2023-02-06T02:00:42.603Z,103032.56
2023-02-06T02:03:10.076Z,103033.28
2023-02-06T02:05:40.390Z,103030.44
2023-02-06T02:08:15.486Z,103020.06
2023-02-06T02:10:44.871Z,103015.59
2023-02-06T02:13:12.062Z,103020.59
2023-02-06T02:15:46.816Z,103016.91
2023-02-06T02:18:31.635Z,103015.59
2023-02-06T02:21:37.481Z,103012.19
2023-02-06T02:24:12.895Z,103018.41
2023-02-06T02:27:03.741Z,103017.09
2023-02-06T02:30:14.838Z,103023.88
2023-02-06T02:33:20.529Z,103026.50
2023-02-06T02:35:56.986Z,103023.97
2023-02-06T02:38:39.069Z,103022.81
2023-02-06T02:41:16.541Z,103031.19
2023-02-06T02:43:45.484Z,103037.63
2023-02-06T02:46:23.487Z,103028.91
2023-02-06T02:48:54.514Z,103024.25
2023-02-06T02:51:24.958Z,103031.38
2023-02-06T02:53:52.352Z,103036.94
2023-02-06T02:56:23.258Z,103028.31
2023-02-06T02:58:55.755Z,103034.94
2023-02-06T03:01:28.895Z,103038.34
2023-02-06T03:03:59.541Z,103034.38
2023-02-06T03:07:00.998Z,103030.72
2023-02-06T03:09:45.892Z,103024.09
2023-02-06T03:12:19.877Z,103026.09
2023-02-06T03:14:54.184Z,103025.84
2023-02-06T03:17:33.061Z,103024.72
2023-02-06T03:20:02.929Z,103036.91
2023-02-06T03:22:35.219Z,103023.22
2023-02-06T03:25:05.579Z,103031.50
2023-02-06T03:27:34.468Z,103032.13
2023-02-06T03:30:06.519Z,103030.41
2023-02-06T03:32:38.285Z,103030.53
2023-02-06T03:35:11.019Z,103025.31
2023-02-06T03:37:40.356Z,103024.00
2023-02-06T03:40:09.225Z,103018.25
2023-02-06T03:42:41.944Z,103017.91
2023-02-06T03:45:15.639Z,103003.66
2023-02-06T03:47:46.944Z,103000.78
2023-02-06T03:50:15.400Z,103000.69
2023-02-06T03:52:48.900Z,103000.78
2023-02-06T03:55:20.999Z,102989.97
2023-02-06T03:57:52.172Z,103002.31
2023-02-06T04:00:20.644Z,103006.00
2023-02-06T04:02:48.936Z,103000.38
2023-02-06T04:05:18.001Z,102998.44
2023-02-06T04:07:47.267Z,102990.94
2023-02-06T04:10:14.237Z,102997.91
2023-02-06T04:12:41.708Z,103000.00
2023-02-06T04:15:09.642Z,103000.53
2023-02-06T04:17:53.613Z,102998.31
2023-02-06T04:20:23.737Z,102990.22
2023-02-06T04:22:52.800Z,102985.53
2023-02-06T04:25:20.100Z,102994.75
2023-02-06T04:27:47.749Z,103003.03
2023-02-06T04:30:14.711Z,102995.53
2023-02-06T04:32:43.293Z,102990.72
2023-02-06T04:35:12.564Z,102992.25
2023-02-06T04:37:39.922Z,102988.22
2023-02-06T04:40:10.062Z,102979.63
2023-02-06T04:42:37.472Z,102974.34
2023-02-06T04:45:05.601Z,102970.63
2023-02-06T04:47:32.810Z,102970.06
2023-02-06T04:50:00.243Z,102964.66
2023-02-06T04:52:27.662Z,102978.19
2023-02-06T04:54:55.244Z,102975.84
2023-02-06T04:57:24.488Z,102967.56
2023-02-06T04:59:51.939Z,102972.00
2023-02-06T05:02:19.246Z,102974.88
2023-02-06T05:04:46.877Z,102979.16
2023-02-06T05:07:14.224Z,102979.16
2023-02-06T05:09:41.517Z,102972.59
2023-02-06T05:12:08.972Z,102976.66
2023-02-06T05:14:38.252Z,102973.59
2023-02-06T05:17:05.633Z,102979.22
2023-02-06T05:19:33.755Z,102973.25
2023-02-06T05:22:00.970Z,102974.38
2023-02-06T05:24:28.463Z,102975.69
2023-02-06T05:26:55.884Z,102970.28
2023-02-06T05:29:23.182Z,102967.94
2023-02-06T05:31:52.225Z,102964.91
2023-02-06T05:34:19.747Z,102961.25
2023-02-06T05:36:46.879Z,102957.41
2023-02-06T05:39:14.505Z,102962.66
2023-02-06T05:41:42.058Z,102964.28
2023-02-06T05:44:09.360Z,102966.81
2023-02-06T05:46:36.897Z,102962.03
2023-02-06T05:49:06.127Z,102955.47
2023-02-06T05:51:33.304Z,102963.56
2023-02-06T05:54:00.429Z,102958.69
2023-02-06T05:56:28.061Z,102960.03
2023-02-06T05:58:55.217Z,102964.31
2023-02-06T06:01:22.693Z,102967.72
2023-02-06T06:03:50.082Z,102952.44
2023-02-06T06:06:18.745Z,102944.09
2023-02-06T06:08:45.854Z,102948.78
2023-02-06T06:11:13.226Z,102949.75
2023-02-06T06:13:40.534Z,102940.97
2023-02-06T06:16:08.544Z,102939.56
2023-02-06T06:18:36.206Z,102936.25
2023-02-06T06:21:03.546Z,102943.84
2023-02-06T06:23:32.243Z,102945.63
2023-02-06T06:25:59.989Z,102946.94
2023-02-06T06:28:26.813Z,102936.06
2023-02-06T06:31:01.565Z,102934.75
2023-02-06T06:33:28.914Z,102938.00
2023-02-06T06:35:56.160Z,102934.34
2023-02-06T06:38:23.815Z,102940.28
2023-02-06T06:40:53.038Z,102935.28
2023-02-06T06:43:20.296Z,102932.94
2023-02-06T06:45:48.313Z,102937.22
2023-02-06T06:48:15.729Z,102935.84
2023-02-06T06:50:42.989Z,102933.81
2023-02-06T06:53:10.691Z,102934.34
2023-02-06T06:55:38.330Z,102930.59
2023-02-06T06:58:07.808Z,102927.53
2023-02-06T07:00:35.279Z,102924.75
2023-02-06T07:03:02.564Z,102923.94
2023-02-06T07:05:30.562Z,102921.78
2023-02-06T07:07:57.855Z,102928.59
2023-02-06T07:10:26.250Z,102928.69
2023-02-06T07:12:53.830Z,102921.06
2023-02-06T07:15:23.789Z,102913.84
2023-02-06T07:17:51.180Z,102909.75
2023-02-06T07:20:18.849Z,102916.16
2023-02-06T07:22:47.174Z,102915.88
2023-02-06T07:25:14.540Z,102914.31
2023-02-06T07:27:41.931Z,102907.72
2023-02-06T07:30:10.790Z,102902.91
2023-02-06T07:32:39.763Z,102899.88
2023-02-06T07:35:07.627Z,102899.50
2023-02-06T07:37:35.099Z,102915.19
2023-02-06T07:40:02.841Z,102905.34
2023-02-06T07:42:29.984Z,102909.63
2023-02-06T07:44:57.194Z,102911.09
2023-02-06T07:47:24.481Z,102903.88
2023-02-06T07:49:53.304Z,102902.59
2023-02-06T07:52:22.392Z,102898.28
2023-02-06T07:54:49.535Z,102897.25
2023-02-06T07:57:17.606Z,102892.06
2023-02-06T07:59:45.001Z,102892.22
2023-02-06T08:02:13.410Z,102899.88
2023-02-06T08:04:40.839Z,102903.53
2023-02-06T08:07:09.948Z,102900.56
2023-02-06T08:09:37.244Z,102894.44
2023-02-06T08:12:04.908Z,102883.34
2023-02-06T08:14:32.564Z,102884.53
2023-02-06T08:17:01.017Z,102883.13
2023-02-06T08:19:28.502Z,102883.13
2023-02-06T08:21:56.162Z,102873.97
2023-02-06T08:24:25.734Z,102867.91
2023-02-06T08:26:53.399Z,102872.94
2023-02-06T08:29:21.100Z,102869.44
2023-02-06T08:31:48.701Z,102864.81
2023-02-06T08:34:16.341Z,102870.25
2023-02-06T08:36:43.987Z,102868.72
2023-02-06T08:39:13.186Z,102872.03
2023-02-06T08:41:43.654Z,102876.16
2023-02-06T08:44:15.231Z,102875.41
2023-02-06T08:46:43.995Z,102868.00
2023-02-06T08:49:13.782Z,102867.78
2023-02-06T08:51:41.715Z,102871.56
2023-02-06T08:54:12.321Z,102868.16
2023-02-06T08:56:42.153Z,102868.41
2023-02-06T08:59:09.550Z,102868.53
2023-02-06T09:01:38.105Z,102872.19
2023-02-06T09:04:07.086Z,102866.03
2023-02-06T09:06:36.283Z,102871.81
2023-02-06T09:09:04.094Z,102875.19
2023-02-06T09:11:31.593Z,102869.38
2023-02-06T09:14:01.622Z,102871.22
2023-02-06T09:16:29.872Z,102868.50
2023-02-06T09:18:57.454Z,102867.00
2023-02-06T09:21:26.095Z,102878.38
2023-02-06T09:23:56.706Z,102873.25
2023-02-06T09:26:25.846Z,102887.31
2023-02-06T09:28:53.473Z,102880.41
2023-02-06T09:31:22.738Z,102879.97
2023-02-06T09:33:50.742Z,102885.78
2023-02-06T09:36:20.158Z,102882.50
2023-02-06T09:38:50.869Z,102875.81
2023-02-06T09:41:29.421Z,102875.91
2023-02-06T09:44:01.799Z,102876.38
2023-02-06T09:46:33.649Z,102878.38
2023-02-06T09:49:07.927Z,102879.06
2023-02-06T09:51:51.076Z,102874.16
2023-02-06T09:54:28.648Z,102886.41
2023-02-06T09:57:00.861Z,102880.25
2023-02-06T09:59:32.617Z,102888.81
2023-02-06T10:02:21.007Z,102896.53
2023-02-06T10:04:56.711Z,102907.03
2023-02-06T10:07:41.283Z,102897.72
2023-02-06T10:10:15.794Z,102891.44
2023-02-06T10:12:47.621Z,102887.84
2023-02-06T10:15:23.151Z,102884.66
2023-02-06T10:17:56.952Z,102884.97
2023-02-06T10:20:33.521Z,102882.06
2023-02-06T10:23:12.289Z,102886.09
2023-02-06T10:25:45.679Z,102883.34
2023-02-06T10:28:23.225Z,102875.13
2023-02-06T10:31:14.461Z,102866.94
2023-02-06T10:33:50.619Z,102864.69
2023-02-06T10:36:35.025Z,102861.38
2023-02-06T10:39:45.155Z,102860.00
2023-02-06T10:42:21.711Z,102863.00
2023-02-06T10:45:09.561Z,102866.94
2023-02-06T10:47:51.255Z,102862.66
2023-02-06T10:50:26.213Z,102864.34
2023-02-06T10:52:56.521Z,102854.44
2023-02-06T10:55:27.078Z,102868.81
2023-02-06T10:58:06.023Z,102864.06
2023-02-06T11:00:34.001Z,102864.13
2023-02-06T11:03:07.856Z,102860.69
2023-02-06T11:05:37.293Z,102862.56
2023-02-06T11:08:14.261Z,102859.59
2023-02-06T11:10:41.457Z,102870.00
2023-02-06T11:13:14.812Z,102874.22
2023-02-06T11:15:50.382Z,102871.47
2023-02-06T11:18:21.004Z,102874.94
2023-02-06T11:20:54.836Z,102869.88
2023-02-06T11:23:25.399Z,102865.44
2023-02-06T11:26:04.148Z,102870.59
2023-02-06T11:28:32.576Z,102866.59
2023-02-06T11:31:03.319Z,102862.72
2023-02-06T11:33:39.108Z,102862.25
2023-02-06T11:36:23.274Z,102859.25
2023-02-06T11:38:59.314Z,102854.03
2023-02-06T11:41:27.636Z,102856.34
2023-02-06T11:43:57.872Z,102859.63
2023-02-06T11:46:27.571Z,102864.84
2023-02-06T11:49:07.569Z,102859.53
2023-02-06T11:51:54.711Z,102857.25
2023-02-06T11:54:24.977Z,102846.28
2023-02-06T11:57:04.763Z,102841.94
2023-02-06T11:59:33.564Z,102838.63
2023-02-06T12:02:01.759Z,102840.81
2023-02-06T12:04:35.376Z,102831.00
2023-02-06T12:07:14.003Z,102830.88
2023-02-06T12:09:41.436Z,102825.03
2023-02-06T12:12:19.926Z,102824.53
2023-02-06T12:14:53.978Z,102821.19
2023-02-06T12:17:28.104Z,102820.19
2023-02-06T12:20:04.754Z,102816.06
2023-02-06T12:22:40.755Z,102806.00
2023-02-06T12:25:24.790Z,102800.22
2023-02-06T12:27:58.278Z,102786.06
2023-02-06T12:30:39.578Z,102787.41
2023-02-06T12:33:15.937Z,102783.25
2023-02-06T12:35:46.782Z,102778.47
2023-02-06T12:38:23.314Z,102775.22
2023-02-06T12:41:14.528Z,102777.25
2023-02-06T12:43:44.575Z,102775.03
2023-02-06T12:46:16.548Z,102777.56
2023-02-06T12:48:49.677Z,102773.09
2023-02-06T12:51:22.369Z,102767.09
2023-02-06T12:53:55.393Z,102750.56
2023-02-06T12:56:28.858Z,102762.66
2023-02-06T12:59:12.278Z,102759.56
2023-02-06T13:01:50.550Z,102760.41
2023-02-06T13:04:20.400Z,102769.69
2023-02-06T13:06:53.946Z,102764.41
2023-02-06T13:09:26.208Z,102759.00
2023-02-06T13:11:54.367Z,102757.25
2023-02-06T13:14:24.866Z,102754.00
2023-02-06T13:16:56.210Z,102747.34
2023-02-06T13:19:27.789Z,102748.00
2023-02-06T13:22:22.756Z,102744.38
2023-02-06T13:24:52.082Z,102738.19
2023-02-06T13:27:23.918Z,102734.06
2023-02-06T13:29:52.042Z,102724.22
2023-02-06T13:32:45.030Z,102721.47
2023-02-06T13:35:27.860Z,102723.06
2023-02-06T13:38:25.325Z,102726.97
2023-02-06T13:41:34.493Z,102723.53
2023-02-06T13:44:05.953Z,102726.19
2023-02-06T13:47:12.117Z,102722.88
2023-02-06T13:50:02.546Z,102715.91
2023-02-06T13:52:39.351Z,102706.19
2023-02-06T13:55:25.659Z,102697.97
2023-02-06T13:58:21.333Z,102691.94
2023-02-06T14:00:52.832Z,102694.50
2023-02-06T14:03:25.939Z,102688.47
2023-02-06T14:06:00.728Z,102677.53
2023-02-06T14:08:39.870Z,102680.28
2023-02-06T14:11:23.918Z,102682.69
2023-02-06T14:14:16.984Z,102687.53
2023-02-06T14:16:53.553Z,102692.09
2023-02-06T14:19:31.500Z,102678.19
2023-02-06T14:22:04.895Z,102678.75
2023-02-06T14:24:50.234Z,102670.31
2023-02-06T14:27:41.166Z,102662.91
2023-02-06T14:30:23.321Z,102664.97
2023-02-06T14:33:03.024Z,102658.91
2023-02-06T14:35:53.608Z,102659.38
2023-02-06T14:38:36.915Z,102654.94
2023-02-06T14:41:04.952Z,102664.16
2023-02-06T14:43:35.237Z,102654.25
2023-02-06T14:46:08.278Z,102655.00
2023-02-06T14:48:40.791Z,102654.19
2023-02-06T14:51:18.422Z,102656.97
2023-02-06T14:53:52.431Z,102653.75
2023-02-06T14:56:26.354Z,102658.22
2023-02-06T14:58:54.115Z,102654.44
2023-02-06T15:01:23.809Z,102661.53
2023-02-06T15:03:53.132Z,102664.34
2023-02-06T15:06:32.488Z,102667.25
2023-02-06T15:09:01.076Z,102656.41
2023-02-06T15:11:29.964Z,102656.75
2023-02-06T15:13:57.142Z,102670.16
2023-02-06T15:16:24.383Z,102660.47
2023-02-06T15:19:10.876Z,102665.31
2023-02-06T15:21:40.763Z,102652.19
2023-02-06T15:24:21.440Z,102646.66
2023-02-06T15:26:56.812Z,102656.44
2023-02-06T15:29:26.077Z,102660.22
2023-02-06T15:32:01.220Z,102655.63
2023-02-06T15:34:30.550Z,102654.31
2023-02-06T15:36:58.121Z,102656.97
2023-02-06T15:39:26.134Z,102642.91
2023-02-06T15:41:54.337Z,102641.38
2023-02-06T15:44:29.295Z,102643.19
2023-02-06T15:46:58.119Z,102640.84
2023-02-06T15:49:42.599Z,102632.84
2023-02-06T15:52:11.978Z,102626.50
2023-02-06T15:54:40.632Z,102626.34
2023-02-06T15:57:24.735Z,102622.66
2023-02-06T15:59:52.082Z,102625.78
2023-02-06T16:02:23.127Z,102622.66
2023-02-06T16:04:54.293Z,102623.59
2023-02-06T16:07:24.666Z,102623.44
2023-02-06T16:09:54.413Z,102628.66
2023-02-06T16:12:22.918Z,102625.09
2023-02-06T16:14:55.754Z,102622.13
2023-02-06T16:17:27.122Z,102623.03
2023-02-06T16:19:58.434Z,102625.34
2023-02-06T16:22:28.372Z,102624.34
2023-02-06T16:25:15.141Z,102613.00
2023-02-06T16:27:45.102Z,102617.16
2023-02-06T16:30:22.194Z,102610.97
2023-02-06T16:32:50.133Z,102603.81
2023-02-06T16:35:19.253Z,102596.41
2023-02-06T16:37:48.077Z,102610.72
2023-02-06T16:40:15.070Z,102603.53
2023-02-06T16:42:42.414Z,102607.13
2023-02-06T16:45:18.069Z,102615.16
2023-02-06T16:47:45.414Z,102619.16
2023-02-06T16:50:13.370Z,102624.25
2023-02-06T16:52:48.406Z,102631.44
2023-02-06T16:55:19.342Z,102625.25
2023-02-06T16:57:48.886Z,102623.19
2023-02-06T17:00:21.644Z,102627.06
2023-02-06T17:02:50.336Z,102635.16
2023-02-06T17:05:18.590Z,102633.94
2023-02-06T17:07:47.688Z,102632.03
2023-02-06T17:10:15.741Z,102620.03
2023-02-06T17:12:43.836Z,102615.69
2023-02-06T17:15:12.114Z,102616.59
2023-02-06T17:17:40.348Z,102617.66
2023-02-06T17:20:17.663Z,102623.59
2023-02-06T17:22:46.718Z,102629.22
2023-02-06T17:25:13.966Z,102635.38
2023-02-06T17:27:41.094Z,102631.78
2023-02-06T17:30:16.873Z,102626.16
2023-02-06T17:32:44.258Z,102623.03
2023-02-06T17:35:14.434Z,102625.41
2023-02-06T17:37:42.051Z,102623.44
2023-02-06T17:40:19.149Z,102619.34
2023-02-06T17:42:46.705Z,102618.66
2023-02-06T17:45:14.157Z,102620.38
2023-02-06T17:47:42.139Z,102631.28
2023-02-06T17:50:13.205Z,102619.78
2023-02-06T17:52:40.579Z,102622.16
2023-02-06T17:55:09.965Z,102617.19
2023-02-06T17:57:39.082Z,102625.59
2023-02-06T18:00:09.819Z,102627.41
2023-02-06T18:02:37.275Z,102622.25
2023-02-06T18:05:05.648Z,102616.47
2023-02-06T18:07:33.020Z,102620.63
2023-02-06T18:10:01.025Z,102613.47
2023-02-06T18:12:28.536Z,102612.47
2023-02-06T18:14:57.592Z,102613.72
2023-02-06T18:17:24.980Z,102611.22
2023-02-06T18:19:52.626Z,102615.44
2023-02-06T18:22:21.520Z,102605.16
2023-02-06T18:24:50.245Z,102604.22
2023-02-06T18:27:18.622Z,102601.88
2023-02-06T18:29:50.147Z,102596.94
2023-02-06T18:32:19.642Z,102593.00
2023-02-06T18:34:49.670Z,102587.69
2023-02-06T18:37:16.928Z,102586.69
2023-02-06T18:39:44.345Z,102588.53
2023-02-06T18:42:12.485Z,102576.94
2023-02-06T18:44:40.272Z,102575.44
2023-02-06T18:47:07.927Z,102565.69
2023-02-06T18:49:36.689Z,102568.91
2023-02-06T18:52:05.229Z,102573.81
2023-02-06T18:54:32.642Z,102564.19
2023-02-06T18:56:59.828Z,102567.16
2023-02-06T18:59:27.196Z,102571.97
2023-02-06T19:01:54.567Z,102562.09
2023-02-06T19:04:22.614Z,102563.81
2023-02-06T19:06:51.341Z,102565.09
2023-02-06T19:09:19.232Z,102568.91
2023-02-06T19:11:49.841Z,102568.28
2023-02-06T19:14:18.648Z,102567.56
2023-02-06T19:16:45.928Z,102574.97
2023-02-06T19:19:16.062Z,102570.66
2023-02-06T19:21:44.104Z,102568.53
2023-02-06T19:24:15.050Z,102565.31
2023-02-06T19:26:42.780Z,102567.78
2023-02-06T19:29:12.282Z,102551.88
2023-02-06T19:31:39.813Z,102560.25
2023-02-06T19:34:07.470Z,102558.44
2023-02-06T19:36:35.047Z,102563.97
2023-02-06T19:39:05.912Z,102561.38
2023-02-06T19:41:34.871Z,102555.09
2023-02-06T19:44:05.571Z,102558.16
2023-02-06T19:46:36.103Z,102567.19
2023-02-06T19:49:04.170Z,102572.97
2023-02-06T19:51:33.164Z,102572.34
2023-02-06T19:54:01.599Z,102577.66
2023-02-06T19:56:30.565Z,102572.00
2023-02-06T19:59:01.591Z,102568.28
2023-02-06T20:01:30.121Z,102564.84
2023-02-06T20:03:58.893Z,102574.72
2023-02-06T20:06:27.393Z,102558.53
2023-02-06T20:08:56.230Z,102561.00
2023-02-06T20:11:24.111Z,102563.22
2023-02-06T20:13:52.315Z,102567.78
2023-02-06T20:16:23.091Z,102570.03
2023-02-06T20:18:50.812Z,102562.25
2023-02-06T20:21:21.000Z,102564.56
2023-02-06T20:23:48.873Z,102562.09
2023-02-06T20:26:17.626Z,102570.09
2023-02-06T20:28:45.520Z,102572.94
2023-02-06T20:31:13.227Z,102571.97
2023-02-06T20:33:42.462Z,102579.66
2023-02-06T20:36:12.636Z,102581.75
2023-02-06T20:38:40.005Z,102583.47
2023-02-06T20:41:08.230Z,102573.84
2023-02-06T20:43:37.061Z,102581.25
2023-02-06T20:46:06.037Z,102588.50
2023-02-06T20:48:33.675Z,102590.75
2023-02-06T20:51:05.556Z,102587.03
2023-02-06T20:53:32.913Z,102573.09
2023-02-06T20:56:00.205Z,102571.88
2023-02-06T20:58:28.531Z,102580.13
2023-02-06T21:00:56.605Z,102581.22
2023-02-06T21:03:23.987Z,102579.50
2023-02-06T21:05:58.201Z,102580.81
2023-02-06T21:08:27.929Z,102576.66
2023-02-06T21:10:55.826Z,102577.00
2023-02-06T21:13:23.437Z,102584.41
2023-02-06T21:15:52.333Z,102579.59
2023-02-06T21:18:19.990Z,102587.72
2023-02-06T21:20:47.560Z,102586.09
2023-02-06T21:23:14.923Z,102596.78
2023-02-06T21:25:43.717Z,102577.66
2023-02-06T21:28:10.506Z,102576.22
2023-02-06T21:30:38.150Z,102573.03
2023-02-06T21:33:05.940Z,102575.88
2023-02-06T21:35:33.258Z,102582.63
2023-02-06T21:38:00.720Z,102575.16
2023-02-06T21:40:27.834Z,102564.34
2023-02-06T21:42:56.888Z,102562.63
2023-02-06T21:45:24.102Z,102553.34
2023-02-06T21:47:51.925Z,102555.97
2023-02-06T21:50:19.289Z,102547.16
2023-02-06T21:52:46.476Z,102543.47
2023-02-06T21:55:13.701Z,102543.31
2023-02-06T21:57:41.302Z,102541.69
2023-02-06T22:00:11.103Z,102539.47
2023-02-06T22:02:38.470Z,102542.94
2023-02-06T22:05:06.857Z,102552.22
2023-02-06T22:07:35.754Z,102545.53
2023-02-06T22:10:04.414Z,102530.25
2023-02-06T22:12:32.466Z,102538.59
2023-02-06T22:15:00.279Z,102535.16
2023-02-06T22:17:29.779Z,102532.84
2023-02-06T22:19:57.266Z,102531.66
2023-02-06T22:22:24.529Z,102530.81
2023-02-06T22:24:51.967Z,102530.91
2023-02-06T22:27:19.225Z,102525.31
2023-02-06T22:29:46.603Z,102531.13
2023-02-06T22:32:13.710Z,102536.44
2023-02-06T22:34:42.542Z,102527.78
2023-02-06T22:37:10.303Z,102523.03
2023-02-06T22:39:39.302Z,102532.06
2023-02-06T22:42:07.327Z,102536.41
2023-02-06T22:44:35.812Z,102535.41
2023-02-06T22:47:03.224Z,102530.41
2023-02-06T22:49:30.635Z,102532.47
2023-02-06T22:51:59.971Z,102535.06
2023-02-06T22:54:27.409Z,102534.63
2023-02-06T22:56:55.192Z,102518.47
2023-02-06T22:59:24.135Z,102520.50
2023-02-06T23:01:54.235Z,102515.53
2023-02-06T23:04:23.879Z,102516.59
2023-02-06T23:06:52.166Z,102519.97
2023-02-06T23:09:23.710Z,102522.50
2023-02-06T23:11:51.644Z,102539.38
2023-02-06T23:14:19.230Z,102534.56
2023-02-06T23:16:47.642Z,102526.34
2023-02-06T23:19:16.259Z,102524.34
2023-02-06T23:21:45.254Z,102527.63
2023-02-06T23:24:13.409Z,102527.31
2023-02-06T23:26:44.585Z,102528.59
2023-02-06T23:29:13.186Z,102529.38
2023-02-06T23:31:43.369Z,102528.97
2023-02-06T23:34:12.836Z,102537.84
2023-02-06T23:36:40.704Z,102526.56
2023-02-06T23:39:08.048Z,102530.59
2023-02-06T23:41:35.496Z,102527.69
2023-02-06T23:44:06.669Z,102521.03
2023-02-06T23:46:36.094Z,102542.91
2023-02-06T23:49:03.622Z,102539.53
2023-02-06T23:51:30.967Z,102533.56
2023-02-06T23:53:58.997Z,102531.31
2023-02-06T23:56:29.154Z,102524.88
2023-02-06T23:58:58.152Z,102526.63
